Big Bear Station Historical Data
Daily Summary for March 13, 2019 Units:  Both    English   Metric
Next Day »
Daily Weekly Monthly Yearly Custom
  High: Low: Average:
Temperature: 37.4 °F /  3 °C 23.4 °F /  -4.8 °C 29.6 °F /  -1.3 °C
Dew Point: 29.9 °F /  -1.2 °C 13.1 °F /  -10.5 °C 21.3 °F /  -5.9 °C
Humidity: 98% 48% 72%
Wind Speed: 7.8mph /  12.6km/h - 2.9mph /  4.7km/h
Wind Gust: -999.0mph /  -1607.7km/h - -
Wind- - WSW
Pressure: 23.50 in /  795.7 hPa 23.20 in /  785.6 hPa -
Precipitation: 0.07 in /  1.78 mm    
Historical Graphs
 
 
Tabular Data for March 13, 2019
Time Temperature Dew Point Pressure Wind Wind Speed Wind Gust Humidity Rainfall Rate (Hourly)
00:08 30.6 °F /  -0.8 °C 29.9 °F /  -1.2 °C 23.20in /  785.6hPa NNE 5.3mph /  8.5km/h -999.0mph /  -1607.7km/h 97% 0.00in /  0mm
00:23 30.6 °F /  -0.8 °C 29.9 °F /  -1.2 °C 23.20in /  785.6hPa ENE 1.7mph /  2.7km/h -999.0mph /  -1607.7km/h 97% 0.00in /  0mm
00:39 30.4 °F /  -0.9 °C 29.9 °F /  -1.2 °C 23.20in /  785.6hPa WSW 2.7mph /  4.3km/h -999.0mph /  -1607.7km/h 98% 0.00in /  0mm
00:54 30.4 °F /  -0.9 °C 29.9 °F /  -1.2 °C 23.20in /  785.6hPa WNW 2.7mph /  4.3km/h -999.0mph /  -1607.7km/h 98% 0.00in /  0mm
01:09 30.4 °F /  -0.9 °C 29.9 °F /  -1.2 °C 23.20in /  785.6hPa NE 2.7mph /  4.3km/h -999.0mph /  -1607.7km/h 98% 0.00in /  0mm
01:24 30.4 °F /  -0.9 °C 29.9 °F /  -1.2 °C 23.21in /  785.9hPa NNW 2.7mph /  4.3km/h -999.0mph /  -1607.7km/h 98% 0.00in /  0mm
01:39 30.4 °F /  -0.9 °C 29.9 °F /  -1.2 °C 23.21in /  785.9hPa WSW 6.3mph /  10.1km/h -999.0mph /  -1607.7km/h 98% 0.00in /  0mm
01:55 30.4 °F /  -0.9 °C 29.9 °F /  -1.2 °C 23.22in /  786.2hPa SE 6.3mph /  10.1km/h -999.0mph /  -1607.7km/h 98% 0.00in /  0mm
02:10 30.2 °F /  -1 °C 29.2 °F /  -1.6 °C 23.21in /  785.9hPa South 2.7mph /  4.3km/h -999.0mph /  -1607.7km/h 96% 0.00in /  0mm
02:25 30.4 °F /  -0.9 °C 28.9 °F /  -1.7 °C 23.22in /  786.2hPa NW 4.2mph /  6.8km/h -999.0mph /  -1607.7km/h 94% 0.00in /  0mm
02:41 30.2 °F /  -1 °C 28.4 °F /  -2 °C 23.23in /  786.6hPa West 4.2mph /  6.8km/h -999.0mph /  -1607.7km/h 93% 0.00in /  0mm
02:56 29.8 °F /  -1.2 °C 28.0 °F /  -2.2 °C 23.23in /  786.6hPa WNW 2.7mph /  4.3km/h -999.0mph /  -1607.7km/h 93% 0.00in /  0mm
03:11 29.5 °F /  -1.4 °C 26.9 °F /  -2.8 °C 23.22in /  786.2hPa WNW 2.2mph /  3.5km/h -999.0mph /  -1607.7km/h 90% 0.00in /  0mm
03:27 29.3 °F /  -1.5 °C 26.2 °F /  -3.2 °C 23.23in /  786.6hPa NNE 5.8mph /  9.3km/h -999.0mph /  -1607.7km/h 88% 0.00in /  0mm
03:42 29.1 °F /  -1.6 °C 24.6 °F /  -4.1 °C 23.23in /  786.6hPa NE 1.7mph /  2.7km/h -999.0mph /  -1607.7km/h 83% 0.00in /  0mm
03:57 27.5 °F /  -2.5 °C 24.7 °F /  -4.1 °C 23.24in /  786.9hPa North 2.2mph /  3.5km/h -999.0mph /  -1607.7km/h 89% 0.00in /  0mm
04:12 26.8 °F /  -2.9 °C 24.3 °F /  -4.3 °C 23.23in /  786.6hPa Calm   -999.0mph /  -1607.7km/h 90% 0.00in /  0mm
04:27 26.8 °F /  -2.9 °C 24.0 °F /  -4.4 °C 23.25in /  787.2hPa Calm   -999.0mph /  -1607.7km/h 89% 0.00in /  0mm
04:43 26.6 °F /  -3 °C 24.3 °F /  -4.3 °C 23.25in /  787.2hPa Calm   -999.0mph /  -1607.7km/h 91% 0.00in /  0mm
04:58 26.2 °F /  -3.2 °C 23.9 °F /  -4.5 °C 23.26in /  787.6hPa North 3.7mph /  6km/h -999.0mph /  -1607.7km/h 91% 0.00in /  0mm
05:13 25.9 °F /  -3.4 °C 23.4 °F /  -4.8 °C 23.27in /  787.9hPa Calm   -999.0mph /  -1607.7km/h 90% 0.00in /  0mm
05:28 25.5 °F /  -3.6 °C 22.4 °F /  -5.3 °C 23.27in /  787.9hPa Calm   -999.0mph /  -1607.7km/h 88% 0.00in /  0mm
05:44 25.3 °F /  -3.7 °C 22.8 °F /  -5.1 °C 23.28in /  788.3hPa Calm   -999.0mph /  -1607.7km/h 90% 0.00in /  0mm
05:59 24.8 °F /  -4 °C 22.3 °F /  -5.4 °C 23.28in /  788.3hPa Calm   -999.0mph /  -1607.7km/h 90% 0.00in /  0mm
06:14 24.4 °F /  -4.2 °C 22.2 °F /  -5.4 °C 23.29in /  788.6hPa Calm   -999.0mph /  -1607.7km/h 91% 0.00in /  0mm
06:29 23.7 °F /  -4.6 °C 21.5 °F /  -5.8 °C 23.30in /  788.9hPa Calm   -999.0mph /  -1607.7km/h 91% 0.00in /  0mm
06:45 23.4 °F /  -4.8 °C 20.4 °F /  -6.4 °C 23.30in /  788.9hPa WNW 2.2mph /  3.5km/h -999.0mph /  -1607.7km/h 88% 0.00in /  0mm
07:00 23.7 °F /  -4.6 °C 19.6 °F /  -6.9 °C 23.30in /  788.9hPa NW 2.2mph /  3.5km/h -999.0mph /  -1607.7km/h 84% 0.00in /  0mm
07:15 24.3 °F /  -4.3 °C 19.0 °F /  -7.2 °C 23.31in /  789.3hPa WNW 3.2mph /  5.1km/h -999.0mph /  -1607.7km/h 80% 0.00in /  0mm
07:30 24.1 °F /  -4.4 °C 18.2 °F /  -7.7 °C 23.31in /  789.3hPa ENE 4.7mph /  7.6km/h -999.0mph /  -1607.7km/h 78% 0.00in /  0mm
07:45 24.4 °F /  -4.2 °C 18.5 °F /  -7.5 °C 23.32in /  789.6hPa Calm   -999.0mph /  -1607.7km/h 78% 0.00in /  0mm
08:01 24.6 °F /  -4.1 °C 18.4 °F /  -7.6 °C 23.32in /  789.6hPa Calm   -999.0mph /  -1607.7km/h 77% 0.00in /  0mm
08:16 25.9 °F /  -3.4 °C 19.7 °F /  -6.8 °C 23.34in /  790.3hPa North 2.7mph /  4.3km/h -999.0mph /  -1607.7km/h 77% 0.00in /  0mm
08:31 26.2 °F /  -3.2 °C 20.3 °F /  -6.5 °C 23.34in /  790.3hPa NE 2.7mph /  4.3km/h -999.0mph /  -1607.7km/h 78% 0.00in /  0mm
08:46 26.2 °F /  -3.2 °C 20.0 °F /  -6.7 °C 23.35in /  790.6hPa NNW 4.2mph /  6.8km/h -999.0mph /  -1607.7km/h 77% 0.00in /  0mm
09:01 26.6 °F /  -3 °C 19.4 °F /  -7 °C 23.35in /  790.6hPa NW 5.3mph /  8.5km/h -999.0mph /  -1607.7km/h 74% 0.00in /  0mm
09:17 27.0 °F /  -2.8 °C 19.8 °F /  -6.8 °C 23.35in /  790.6hPa North 4.2mph /  6.8km/h -999.0mph /  -1607.7km/h 74% 0.00in /  0mm
09:32 27.5 °F /  -2.5 °C 19.7 °F /  -6.8 °C 23.36in /  791hPa North 2.7mph /  4.3km/h -999.0mph /  -1607.7km/h 72% 0.00in /  0mm
09:47 28.0 °F /  -2.2 °C 20.5 °F /  -6.4 °C 23.36in /  791hPa NNW 5.8mph /  9.3km/h -999.0mph /  -1607.7km/h 73% 0.00in /  0mm
10:02 28.2 °F /  -2.1 °C 19.0 °F /  -7.2 °C 23.36in /  791hPa NNW 6.3mph /  10.1km/h -999.0mph /  -1607.7km/h 68% 0.00in /  0mm
10:18 28.6 °F /  -1.9 °C 19.7 °F /  -6.8 °C 23.37in /  791.3hPa North 4.2mph /  6.8km/h -999.0mph /  -1607.7km/h 69% 0.00in /  0mm
10:34 29.5 °F /  -1.4 °C 19.5 °F /  -6.9 °C 23.36in /  791hPa NNE 4.2mph /  6.8km/h -999.0mph /  -1607.7km/h 66% 0.00in /  0mm
10:49 30.9 °F /  -0.6 °C 19.8 °F /  -6.8 °C 23.37in /  791.3hPa NW 4.7mph /  7.6km/h -999.0mph /  -1607.7km/h 63% 0.00in /  0mm
11:04 32.4 °F /  0.2 °C 18.9 °F /  -7.3 °C 23.37in /  791.3hPa North 7.8mph /  12.6km/h -999.0mph /  -1607.7km/h 57% 0.00in /  0mm
11:20 33.4 °F /  0.8 °C 20.2 °F /  -6.6 °C 23.37in /  791.3hPa North 4.2mph /  6.8km/h -999.0mph /  -1607.7km/h 58% 0.00in /  0mm
11:35 34.0 °F /  1.1 °C 20.4 °F /  -6.4 °C 23.38in /  791.6hPa NE 6.3mph /  10.1km/h -999.0mph /  -1607.7km/h 57% 0.00in /  0mm
11:50 34.0 °F /  1.1 °C 21.6 °F /  -5.8 °C 23.38in /  791.6hPa North 4.7mph /  7.6km/h -999.0mph /  -1607.7km/h 60% 0.00in /  0mm
12:05 34.5 °F /  1.4 °C 22.0 °F /  -5.6 °C 23.38in /  791.6hPa NNW 5.8mph /  9.3km/h -999.0mph /  -1607.7km/h 60% 0.00in /  0mm
12:21 35.1 °F /  1.7 °C 22.2 °F /  -5.4 °C 23.38in /  791.6hPa NNE 5.3mph /  8.5km/h -999.0mph /  -1607.7km/h 59% 0.00in /  0mm
12:36 35.6 °F /  2 °C 20.6 °F /  -6.3 °C 23.38in /  791.6hPa North 6.8mph /  10.9km/h -999.0mph /  -1607.7km/h 54% 0.00in /  0mm
12:52 35.6 °F /  2 °C 21.0 °F /  -6.1 °C 23.39in /  792hPa NNW 5.8mph /  9.3km/h -999.0mph /  -1607.7km/h 55% 0.00in /  0mm
13:07 36.1 °F /  2.3 °C 21.9 °F /  -5.6 °C 23.39in /  792hPa NW 6.8mph /  10.9km/h -999.0mph /  -1607.7km/h 56% 0.00in /  0mm
13:23 36.7 °F /  2.6 °C 22.0 °F /  -5.6 °C 23.39in /  792hPa North 5.8mph /  9.3km/h -999.0mph /  -1607.7km/h 55% 0.00in /  0mm
13:39 36.0 °F /  2.2 °C 21.0 °F /  -6.1 °C 23.39in /  792hPa North 7.3mph /  11.7km/h -999.0mph /  -1607.7km/h 54% 0.00in /  0mm
13:54 35.4 °F /  1.9 °C 20.0 °F /  -6.7 °C 23.38in /  791.6hPa North 7.8mph /  12.6km/h -999.0mph /  -1607.7km/h 53% 0.00in /  0mm
14:10 35.6 °F /  2 °C 20.1 °F /  -6.6 °C 23.39in /  792hPa NNE 4.7mph /  7.6km/h -999.0mph /  -1607.7km/h 53% 0.00in /  0mm
14:25 35.1 °F /  1.7 °C 20.5 °F /  -6.4 °C 23.38in /  791.6hPa North 5.3mph /  8.5km/h -999.0mph /  -1607.7km/h 55% 0.00in /  0mm
14:40 35.6 °F /  2 °C 20.6 °F /  -6.3 °C 23.38in /  791.6hPa NNW 4.7mph /  7.6km/h -999.0mph /  -1607.7km/h 54% 0.00in /  0mm
14:56 35.8 °F /  2.1 °C 20.8 °F /  -6.2 °C 23.38in /  791.6hPa WNW 5.3mph /  8.5km/h -999.0mph /  -1607.7km/h 54% 0.00in /  0mm
15:11 35.6 °F /  2 °C 22.3 °F /  -5.4 °C 23.38in /  791.6hPa NNW 4.7mph /  7.6km/h -999.0mph /  -1607.7km/h 58% 0.00in /  0mm
15:26 35.4 °F /  1.9 °C 21.7 °F /  -5.7 °C 23.39in /  792hPa NNW 5.3mph /  8.5km/h -999.0mph /  -1607.7km/h 57% 0.00in /  0mm
15:41 35.4 °F /  1.9 °C 20.0 °F /  -6.7 °C 23.39in /  792hPa NNW 5.8mph /  9.3km/h -999.0mph /  -1607.7km/h 53% 0.00in /  0mm
15:56 35.8 °F /  2.1 °C 18.0 °F /  -7.8 °C 23.39in /  792hPa NNW 6.3mph /  10.1km/h -999.0mph /  -1607.7km/h 48% 0.00in /  0mm
16:12 35.6 °F /  2 °C 20.1 °F /  -6.6 °C 23.39in /  792hPa North 5.3mph /  8.5km/h -999.0mph /  -1607.7km/h 53% 0.00in /  0mm
16:27 35.8 °F /  2.1 °C 19.0 °F /  -7.2 °C 23.40in /  792.3hPa NNE 2.7mph /  4.3km/h -999.0mph /  -1607.7km/h 50% 0.00in /  0mm
16:42 35.4 °F /  1.9 °C 20.4 °F /  -6.4 °C 23.40in /  792.3hPa WNW 4.2mph /  6.8km/h -999.0mph /  -1607.7km/h 54% 0.00in /  0mm
16:58 34.9 °F /  1.6 °C 19.9 °F /  -6.7 °C 23.40in /  792.3hPa NNW 4.2mph /  6.8km/h -999.0mph /  -1607.7km/h 54% 0.00in /  0mm
17:13 34.7 °F /  1.5 °C 19.7 °F /  -6.8 °C 23.41in /  792.7hPa NW 2.7mph /  4.3km/h -999.0mph /  -1607.7km/h 54% 0.00in /  0mm
17:28 37.4 °F /  3 °C 20.9 °F /  -6.2 °C 23.41in /  792.7hPa NNW 3.2mph /  5.1km/h -999.0mph /  -1607.7km/h 51% 0.00in /  0mm
17:43 35.2 °F /  1.8 °C 20.2 °F /  -6.6 °C 23.41in /  792.7hPa NNW 2.2mph /  3.5km/h -999.0mph /  -1607.7km/h 54% 0.00in /  0mm
17:58 34.0 °F /  1.1 °C 19.5 °F /  -6.9 °C 23.41in /  792.7hPa NNW 2.7mph /  4.3km/h -999.0mph /  -1607.7km/h 55% 0.00in /  0mm
18:14 33.1 °F /  0.6 °C 18.2 °F /  -7.7 °C 23.41in /  792.7hPa WNW 2.7mph /  4.3km/h -999.0mph /  -1607.7km/h 54% 0.00in /  0mm
18:29 32.4 °F /  0.2 °C 17.6 °F /  -8 °C 23.42in /  793hPa NNE 1.7mph /  2.7km/h -999.0mph /  -1607.7km/h 54% 0.00in /  0mm
18:44 31.3 °F /  -0.4 °C 18.2 °F /  -7.7 °C 23.42in /  793hPa Calm   -999.0mph /  -1607.7km/h 58% 0.00in /  0mm
18:59 29.7 °F /  -1.3 °C 17.5 °F /  -8.1 °C 23.42in /  793hPa Calm   -999.0mph /  -1607.7km/h 60% 0.00in /  0mm
19:14 28.8 °F /  -1.8 °C 17.0 °F /  -8.3 °C 23.42in /  793hPa Calm   -999.0mph /  -1607.7km/h 61% 0.00in /  0mm
19:30 27.9 °F /  -2.3 °C 18.0 °F /  -7.8 °C 23.44in /  793.7hPa Calm   -999.0mph /  -1607.7km/h 66% 0.00in /  0mm
19:45 27.0 °F /  -2.8 °C 17.8 °F /  -7.9 °C 23.44in /  793.7hPa Calm   -999.0mph /  -1607.7km/h 68% 0.00in /  0mm
20:00 26.4 °F /  -3.1 °C 17.9 °F /  -7.8 °C 23.45in /  794hPa Calm   -999.0mph /  -1607.7km/h 70% 0.00in /  0mm
20:15 26.2 °F /  -3.2 °C 19.7 °F /  -6.8 °C 23.45in /  794hPa Calm   -999.0mph /  -1607.7km/h 76% 0.00in /  0mm
20:30 25.7 °F /  -3.5 °C 18.9 °F /  -7.3 °C 23.45in /  794hPa Calm   -999.0mph /  -1607.7km/h 75% 0.00in /  0mm
20:46 25.9 °F /  -3.4 °C 20.9 °F /  -6.2 °C 23.46in /  794.4hPa Calm   -999.0mph /  -1607.7km/h 81% 0.00in /  0mm
21:01 25.2 °F /  -3.8 °C 19.6 °F /  -6.9 °C 23.46in /  794.4hPa Calm   -999.0mph /  -1607.7km/h 79% 0.00in /  0mm
21:16 25.0 °F /  -3.9 °C 19.7 °F /  -6.8 °C 23.47in /  794.7hPa Calm   -999.0mph /  -1607.7km/h 80% 0.00in /  0mm
21:31 25.2 °F /  -3.8 °C 19.0 °F /  -7.2 °C 23.47in /  794.7hPa Calm   -999.0mph /  -1607.7km/h 77% 0.00in /  0mm
21:47 25.0 °F /  -3.9 °C 18.5 °F /  -7.5 °C 23.48in /  795hPa Calm   -999.0mph /  -1607.7km/h 76% 0.00in /  0mm
22:02 24.8 °F /  -4 °C 18.9 °F /  -7.3 °C 23.48in /  795hPa Calm   -999.0mph /  -1607.7km/h 78% 0.00in /  0mm
22:17 24.1 °F /  -4.4 °C 17.0 °F /  -8.3 °C 23.48in /  795hPa Calm   -999.0mph /  -1607.7km/h 74% 0.00in /  0mm
22:32 24.6 °F /  -4.1 °C 16.9 °F /  -8.4 °C 23.48in /  795hPa Calm   -999.0mph /  -1607.7km/h 72% 0.00in /  0mm
22:47 25.5 °F /  -3.6 °C 17.7 °F /  -7.9 °C 23.49in /  795.4hPa WNW 3.2mph /  5.1km/h -999.0mph /  -1607.7km/h 72% 0.00in /  0mm
23:03 25.5 °F /  -3.6 °C 15.4 °F /  -9.2 °C 23.49in /  795.4hPa South 1.1mph /  1.8km/h -999.0mph /  -1607.7km/h 65% 0.00in /  0mm
23:18 25.2 °F /  -3.8 °C 14.0 °F /  -10 °C 23.50in /  795.7hPa East 1.7mph /  2.7km/h -999.0mph /  -1607.7km/h 62% 0.00in /  0mm
23:33 25.0 °F /  -3.9 °C 13.1 °F /  -10.5 °C 23.50in /  795.7hPa Calm   -999.0mph /  -1607.7km/h 60% 0.00in /  0mm
23:48 25.3 °F /  -3.7 °C 13.3 °F /  -10.4 °C 23.50in /  795.7hPa Calm   -999.0mph /  -1607.7km/h 60% 0.00in /  0mm
Big Bear CA Weather